sensor_id;sensor_type;location;lat;lon;timestamp;pressure;altitude;pressure_sealevel;temperature;humidity
23619;BME280;18207;32.078;34.818;2023-08-08T00:01:56;100102.38;;;34.07;44.83
23619;BME280;18207;32.078;34.818;2023-08-08T00:04:28;100098.75;;;34.06;45.26
23619;BME280;18207;32.078;34.818;2023-08-08T00:06:59;100100.00;;;34.05;44.80
23619;BME280;18207;32.078;34.818;2023-08-08T00:09:30;100106.94;;;34.04;45.35
23619;BME280;18207;32.078;34.818;2023-08-08T00:12:00;100109.78;;;34.04;45.63
23619;BME280;18207;32.078;34.818;2023-08-08T00:14:30;100105.34;;;34.03;45.01
23619;BME280;18207;32.078;34.818;2023-08-08T00:17:00;100108.19;;;34.03;44.94
23619;BME280;18207;32.078;34.818;2023-08-08T00:19:32;100117.97;;;34.03;44.82
23619;BME280;18207;32.078;34.818;2023-08-08T00:22:03;100111.50;;;34.02;45.23
23619;BME280;18207;32.078;34.818;2023-08-08T00:24:34;100111.91;;;34.01;45.22
23619;BME280;18207;32.078;34.818;2023-08-08T00:27:05;100105.41;;;34.00;44.72
23619;BME280;18207;32.078;34.818;2023-08-08T00:29:36;100110.31;;;34.00;45.18
23619;BME280;18207;32.078;34.818;2023-08-08T00:32:06;100110.31;;;34.00;45.12
23619;BME280;18207;32.078;34.818;2023-08-08T00:34:39;100106.66;;;33.99;45.04
23619;BME280;18207;32.078;34.818;2023-08-08T00:37:09;100105.06;;;33.98;44.67
23619;BME280;18207;32.078;34.818;2023-08-08T00:39:49;100107.09;;;33.98;44.54
23619;BME280;18207;32.078;34.818;2023-08-08T00:42:19;100098.19;;;33.96;44.98
23619;BME280;18207;32.078;34.818;2023-08-08T00:44:58;100100.59;;;33.97;44.93
23619;BME280;18207;32.078;34.818;2023-08-08T00:47:32;100097.38;;;33.95;44.82
23619;BME280;18207;32.078;34.818;2023-08-08T00:50:07;100103.06;;;33.95;44.79
23619;BME280;18207;32.078;34.818;2023-08-08T00:52:39;100107.16;;;33.94;44.89
23619;BME280;18207;32.078;34.818;2023-08-08T00:55:10;100107.63;;;33.93;45.08
23619;BME280;18207;32.078;34.818;2023-08-08T00:57:42;100102.38;;;33.91;44.90
23619;BME280;18207;32.078;34.818;2023-08-08T01:00:13;100104.84;;;33.89;45.04
23619;BME280;18207;32.078;34.818;2023-08-08T01:02:44;100110.56;;;33.89;45.42
23619;BME280;18207;32.078;34.818;2023-08-08T01:05:16;100104.84;;;33.89;44.68
23619;BME280;18207;32.078;34.818;2023-08-08T01:07:57;100105.28;;;33.88;44.85
23619;BME280;18207;32.078;34.818;2023-08-08T01:10:33;100105.72;;;33.86;44.89
23619;BME280;18207;32.078;34.818;2023-08-08T01:13:08;100104.94;;;33.86;45.04
23619;BME280;18207;32.078;34.818;2023-08-08T01:15:40;100113.91;;;33.84;45.40
23619;BME280;18207;32.078;34.818;2023-08-08T01:18:11;100117.59;;;33.85;44.69
23619;BME280;18207;32.078;34.818;2023-08-08T01:20:46;100105.81;;;33.83;44.93
23619;BME280;18207;32.078;34.818;2023-08-08T01:23:24;100108.75;;;33.79;44.99
23619;BME280;18207;32.078;34.818;2023-08-08T01:25:59;100103.47;;;33.78;45.62
23619;BME280;18207;32.078;34.818;2023-08-08T01:28:30;100109.25;;;33.74;45.66
23619;BME280;18207;32.078;34.818;2023-08-08T01:31:01;100108.47;;;33.74;45.58
23619;BME280;18207;32.078;34.818;2023-08-08T01:33:32;100106.84;;;33.73;45.67
23619;BME280;18207;32.078;34.818;2023-08-08T01:36:08;100106.06;;;33.72;45.12
23619;BME280;18207;32.078;34.818;2023-08-08T01:38:52;100105.25;;;33.72;44.96
23619;BME280;18207;32.078;34.818;2023-08-08T01:41:26;100104.44;;;33.71;45.28
23619;BME280;18207;32.078;34.818;2023-08-08T01:43:56;100113.78;;;33.72;45.51
23619;BME280;18207;32.078;34.818;2023-08-08T01:46:27;100115.84;;;33.71;45.04
23619;BME280;18207;32.078;34.818;2023-08-08T01:48:58;100111.75;;;33.72;45.57
23619;BME280;18207;32.078;34.818;2023-08-08T01:51:28;100112.19;;;33.71;45.64
23619;BME280;18207;32.078;34.818;2023-08-08T01:53:58;100115.50;;;33.69;44.88
23619;BME280;18207;32.078;34.818;2023-08-08T01:56:31;100111.81;;;33.69;45.44
23619;BME280;18207;32.078;34.818;2023-08-08T01:59:01;100115.13;;;33.67;44.86
23619;BME280;18207;32.078;34.818;2023-08-08T02:01:31;100111.91;;;33.65;45.42
23619;BME280;18207;32.078;34.818;2023-08-08T02:04:02;100111.53;;;33.63;45.09
23619;BME280;18207;32.078;34.818;2023-08-08T02:06:32;100107.50;;;33.61;44.97
23619;BME280;18207;32.078;34.818;2023-08-08T02:09:03;100114.47;;;33.60;45.40
23619;BME280;18207;32.078;34.818;2023-08-08T02:11:36;100103.47;;;33.58;44.96
23619;BME280;18207;32.078;34.818;2023-08-08T02:14:06;100113.25;;;33.57;45.55
23619;BME280;18207;32.078;34.818;2023-08-08T02:16:36;100110.88;;;33.56;45.53
23619;BME280;18207;32.078;34.818;2023-08-08T02:19:07;100106.03;;;33.53;45.43
23619;BME280;18207;32.078;34.818;2023-08-08T02:21:38;100115.03;;;33.51;45.02
23619;BME280;18207;32.078;34.818;2023-08-08T02:24:08;100116.34;;;33.47;44.95
23619;BME280;18207;32.078;34.818;2023-08-08T02:26:40;100118.38;;;33.46;44.88
23619;BME280;18207;32.078;34.818;2023-08-08T02:29:10;100118.00;;;33.44;45.43
23619;BME280;18207;32.078;34.818;2023-08-08T02:31:40;100124.59;;;33.41;45.51
23619;BME280;18207;32.078;34.818;2023-08-08T02:34:11;100119.31;;;33.40;45.54
23619;BME280;18207;32.078;34.818;2023-08-08T02:36:41;100129.13;;;33.39;44.98
23619;BME280;18207;32.078;34.818;2023-08-08T02:39:12;100129.56;;;33.37;45.49
23619;BME280;18207;32.078;34.818;2023-08-08T02:41:44;100125.94;;;33.37;44.83
23619;BME280;18207;32.078;34.818;2023-08-08T02:44:15;100131.69;;;33.33;45.45
23619;BME280;18207;32.078;34.818;2023-08-08T02:46:49;100129.25;;;33.32;44.82
23619;BME280;18207;32.078;34.818;2023-08-08T02:49:20;100119.56;;;33.29;44.89
23619;BME280;18207;32.078;34.818;2023-08-08T02:51:49;100120.78;;;33.28;45.55
23619;BME280;18207;32.078;34.818;2023-08-08T02:54:19;100126.56;;;33.25;45.64
23619;BME280;18207;32.078;34.818;2023-08-08T02:56:52;100124.94;;;33.24;45.63
23619;BME280;18207;32.078;34.818;2023-08-08T02:59:22;100132.34;;;33.21;45.51
23619;BME280;18207;32.078;34.818;2023-08-08T03:01:52;100128.25;;;33.22;45.48
23619;BME280;18207;32.078;34.818;2023-08-08T03:04:23;100131.50;;;33.21;45.40
23619;BME280;18207;32.078;34.818;2023-08-08T03:06:53;100133.13;;;33.22;44.88
23619;BME280;18207;32.078;34.818;2023-08-08T03:09:23;100132.34;;;33.21;45.00
23619;BME280;18207;32.078;34.818;2023-08-08T03:11:54;100132.34;;;33.21;45.52
23619;BME280;18207;32.078;34.818;2023-08-08T03:14:25;100140.50;;;33.19;45.34
23619;BME280;18207;32.078;34.818;2023-08-08T03:16:56;100133.56;;;33.20;45.06
23619;BME280;18207;32.078;34.818;2023-08-08T03:19:28;100131.13;;;33.19;45.02
23619;BME280;18207;32.078;34.818;2023-08-08T03:21:58;100134.00;;;33.19;45.16
23619;BME280;18207;32.078;34.818;2023-08-08T03:24:29;100138.09;;;33.18;45.63
23619;BME280;18207;32.078;34.818;2023-08-08T03:27:01;100139.69;;;33.19;45.69
23619;BME280;18207;32.078;34.818;2023-08-08T03:29:30;100140.97;;;33.18;45.54
23619;BME280;18207;32.078;34.818;2023-08-08T03:32:01;100137.66;;;33.19;45.53
23619;BME280;18207;32.078;34.818;2023-08-08T03:34:32;100134.00;;;33.19;45.57
23619;BME280;18207;32.078;34.818;2023-08-08T03:37:03;100136.03;;;33.18;45.57
23619;BME280;18207;32.078;34.818;2023-08-08T03:39:34;100139.34;;;33.17;45.78
23619;BME280;18207;32.078;34.818;2023-08-08T03:42:08;100136.91;;;33.15;45.16
23619;BME280;18207;32.078;34.818;2023-08-08T03:44:38;100140.28;;;33.11;45.27
23619;BME280;18207;32.078;34.818;2023-08-08T03:47:08;100143.13;;;33.11;45.84
23619;BME280;18207;32.078;34.818;2023-08-08T03:49:46;100139.88;;;33.09;45.87
23619;BME280;18207;32.078;34.818;2023-08-08T03:52:17;100138.25;;;33.08;45.68
23619;BME280;18207;32.078;34.818;2023-08-08T03:54:47;100137.03;;;33.09;45.21
23619;BME280;18207;32.078;34.818;2023-08-08T03:57:19;100135.81;;;33.10;45.78
23619;BME280;18207;32.078;34.818;2023-08-08T03:59:50;100147.59;;;33.12;45.19
23619;BME280;18207;32.078;34.818;2023-08-08T04:02:20;100141.44;;;33.13;45.26
23619;BME280;18207;32.078;34.818;2023-08-08T04:04:51;100132.91;;;33.13;45.92
23619;BME280;18207;32.078;34.818;2023-08-08T04:07:21;100140.66;;;33.13;45.27
23619;BME280;18207;32.078;34.818;2023-08-08T04:09:51;100150.81;;;33.14;45.79
23619;BME280;18207;32.078;34.818;2023-08-08T04:12:23;100147.97;;;33.14;45.51
23619;BME280;18207;32.078;34.818;2023-08-08T04:14:53;100150.81;;;33.14;45.48
23619;BME280;18207;32.078;34.818;2023-08-08T04:17:24;100150.38;;;33.15;45.64
23619;BME280;18207;32.078;34.818;2023-08-08T04:19:54;100151.59;;;33.14;46.03
23619;BME280;18207;32.078;34.818;2023-08-08T04:22:25;100147.16;;;33.13;45.72
23619;BME280;18207;32.078;34.818;2023-08-08T04:24:55;100150.00;;;33.13;46.15
23619;BME280;18207;32.078;34.818;2023-08-08T04:27:28;100157.28;;;33.14;45.53
23619;BME280;18207;32.078;34.818;2023-08-08T04:29:58;100154.00;;;33.15;45.56
23619;BME280;18207;32.078;34.818;2023-08-08T04:32:29;100154.81;;;33.16;45.83
23619;BME280;18207;32.078;34.818;2023-08-08T04:34:59;100146.66;;;33.18;45.64
23619;BME280;18207;32.078;34.818;2023-08-08T04:37:30;100158.78;;;33.22;46.22
23619;BME280;18207;32.078;34.818;2023-08-08T04:40:00;100160.75;;;33.25;45.59
23619;BME280;18207;32.078;34.818;2023-08-08T04:42:32;100163.53;;;33.28;45.57
23619;BME280;18207;32.078;34.818;2023-08-08T04:45:04;100165.16;;;33.29;46.15
23619;BME280;18207;32.078;34.818;2023-08-08T04:47:34;100169.16;;;33.32;46.29
23619;BME280;18207;32.078;34.818;2023-08-08T04:50:05;100158.91;;;33.34;46.21
23619;BME280;18207;32.078;34.818;2023-08-08T04:52:35;100162.59;;;33.35;46.36
23619;BME280;18207;32.078;34.818;2023-08-08T04:55:06;100155.66;;;33.36;46.21
23619;BME280;18207;32.078;34.818;2023-08-08T04:57:39;100167.44;;;33.38;45.73
23619;BME280;18207;32.078;34.818;2023-08-08T05:00:10;100164.91;;;33.40;46.36
23619;BME280;18207;32.078;34.818;2023-08-08T05:02:41;100169.75;;;33.43;45.73
23619;BME280;18207;32.078;34.818;2023-08-08T05:05:11;100167.69;;;33.43;46.14
23619;BME280;18207;32.078;34.818;2023-08-08T05:07:42;100164.81;;;33.47;46.16
23619;BME280;18207;32.078;34.818;2023-08-08T05:10:12;100172.03;;;33.51;45.68
23619;BME280;18207;32.078;34.818;2023-08-08T05:12:44;100167.88;;;33.56;46.11
23619;BME280;18207;32.078;34.818;2023-08-08T05:15:14;100167.44;;;33.57;45.73
23619;BME280;18207;32.078;34.818;2023-08-08T05:17:44;100165.34;;;33.61;45.65
23619;BME280;18207;32.078;34.818;2023-08-08T05:20:14;100168.13;;;33.65;45.97
23619;BME280;18207;32.078;34.818;2023-08-08T05:22:45;100174.53;;;33.69;46.31
23619;BME280;18207;32.078;34.818;2023-08-08T05:25:15;100173.22;;;33.73;45.94
23619;BME280;18207;32.078;34.818;2023-08-08T05:27:48;100169.06;;;33.78;46.11
23619;BME280;18207;32.078;34.818;2023-08-08T05:30:18;100173.47;;;33.82;46.23
23619;BME280;18207;32.078;34.818;2023-08-08T05:32:49;100174.53;;;33.88;45.40
23619;BME280;18207;32.078;34.818;2023-08-08T05:35:19;100167.97;;;33.91;46.09
23619;BME280;18207;32.078;34.818;2023-08-08T05:37:50;100176.00;;;33.96;45.35
23619;BME280;18207;32.078;34.818;2023-08-08T05:40:20;100178.34;;;34.01;45.96
23619;BME280;18207;32.078;34.818;2023-08-08T05:42:51;100171.31;;;34.05;45.75
23619;BME280;18207;32.078;34.818;2023-08-08T05:45:22;100178.56;;;34.10;45.87
23619;BME280;18207;32.078;34.818;2023-08-08T05:47:52;100191.53;;;34.14;45.25
23619;BME280;18207;32.078;34.818;2023-08-08T05:50:24;100183.31;;;34.16;45.51
23619;BME280;18207;32.078;34.818;2023-08-08T05:52:54;100188.13;;;34.19;45.26
23619;BME280;18207;32.078;34.818;2023-08-08T05:55:24;100189.66;;;34.24;44.86
23619;BME280;18207;32.078;34.818;2023-08-08T05:57:56;100192.00;;;34.29;44.77
23619;BME280;18207;32.078;34.818;2023-08-08T06:00:26;100193.53;;;34.33;45.11
23619;BME280;18207;32.078;34.818;2023-08-08T06:02:56;100196.28;;;34.37;45.07
23619;BME280;18207;32.078;34.818;2023-08-08T06:05:27;100193.72;;;34.42;44.41
23619;BME280;18207;32.078;34.818;2023-08-08T06:07:57;100193.16;;;34.47;44.26
23619;BME280;18207;32.078;34.818;2023-08-08T06:10:28;100192.66;;;34.52;44.62
23619;BME280;18207;32.078;34.818;2023-08-08T06:13:01;100192.16;;;34.57;44.73
23619;BME280;18207;32.078;34.818;2023-08-08T06:15:31;100192.09;;;34.61;44.23
23619;BME280;18207;32.078;34.818;2023-08-08T06:18:01;100198.50;;;34.65;44.36
23619;BME280;18207;32.078;34.818;2023-08-08T06:20:31;100191.91;;;34.68;44.50
23619;BME280;18207;32.078;34.818;2023-08-08T06:23:02;100182.88;;;34.69;44.12
23619;BME280;18207;32.078;34.818;2023-08-08T06:25:32;100195.91;;;34.70;43.88
23619;BME280;18207;32.078;34.818;2023-08-08T06:28:05;100194.22;;;34.73;43.99
23619;BME280;18207;32.078;34.818;2023-08-08T06:30:35;100191.72;;;34.75;44.32
23619;BME280;18207;32.078;34.818;2023-08-08T06:33:06;100193.69;;;34.78;44.14
23619;BME280;18207;32.078;34.818;2023-08-08T06:35:36;100193.59;;;34.81;44.22
23619;BME280;18207;32.078;34.818;2023-08-08T06:38:07;100189.41;;;34.86;44.19
23619;BME280;18207;32.078;34.818;2023-08-08T06:40:37;100197.41;;;34.91;43.68
23619;BME280;18207;32.078;34.818;2023-08-08T06:43:10;100196.09;;;34.95;44.07
23619;BME280;18207;32.078;34.818;2023-08-08T06:45:40;100188.22;;;34.99;44.21
23619;BME280;18207;32.078;34.818;2023-08-08T06:48:27;100199.16;;;35.04;44.17
23619;BME280;18207;32.078;34.818;2023-08-08T06:50:58;100205.47;;;35.11;43.61
23619;BME280;18207;32.078;34.818;2023-08-08T06:53:28;100196.38;;;35.16;44.18
23619;BME280;18207;32.078;34.818;2023-08-08T06:55:59;100194.22;;;35.20;43.86
23619;BME280;18207;32.078;34.818;2023-08-08T06:58:31;100206.72;;;35.26;43.32
23619;BME280;18207;32.078;34.818;2023-08-08T07:01:02;100198.84;;;35.30;43.21
23619;BME280;18207;32.078;34.818;2023-08-08T07:03:33;100194.31;;;35.33;43.12
23619;BME280;18207;32.078;34.818;2023-08-08T07:06:03;100200.72;;;35.37;42.95
23619;BME280;18207;32.078;34.818;2023-08-08T07:08:34;100195.34;;;35.39;43.18
23619;BME280;18207;32.078;34.818;2023-08-08T07:11:07;100189.53;;;35.42;42.75
23619;BME280;18207;32.078;34.818;2023-08-08T07:13:38;100198.47;;;35.44;43.20
23619;BME280;18207;32.078;34.818;2023-08-08T07:16:09;100189.00;;;35.47;43.06
23619;BME280;18207;32.078;34.818;2023-08-08T07:18:39;100190.94;;;35.50;43.21
23619;BME280;18207;32.078;34.818;2023-08-08T07:21:09;100188.03;;;35.54;42.97
23619;BME280;18207;32.078;34.818;2023-08-08T07:23:40;100183.88;;;35.55;42.52
23619;BME280;18207;32.078;34.818;2023-08-08T07:26:10;100187.09;;;35.57;42.50
23619;BME280;18207;32.078;34.818;2023-08-08T07:28:42;100184.25;;;35.57;42.39
23619;BME280;18207;32.078;34.818;2023-08-08T07:31:13;100181.38;;;35.57;42.01
23619;BME280;18207;32.078;34.818;2023-08-08T07:33:43;100181.38;;;35.57;42.53
23619;BME280;18207;32.078;34.818;2023-08-08T07:36:13;100182.22;;;35.57;42.85
23619;BME280;18207;32.078;34.818;2023-08-08T07:38:43;100179.66;;;35.59;42.51
23619;BME280;18207;32.078;34.818;2023-08-08T07:41:14;100170.19;;;35.62;42.88
23619;BME280;18207;32.078;34.818;2023-08-08T07:43:47;100175.47;;;35.64;42.20
23619;BME280;18207;32.078;34.818;2023-08-08T07:46:18;100176.28;;;35.64;42.48
23619;BME280;18207;32.078;34.818;2023-08-08T07:48:51;100176.28;;;35.64;42.70
23619;BME280;18207;32.078;34.818;2023-08-08T07:51:21;100172.16;;;35.65;42.75
23619;BME280;18207;32.078;34.818;2023-08-08T07:53:51;100168.84;;;35.67;42.60
23619;BME280;18207;32.078;34.818;2023-08-08T07:56:22;100166.34;;;35.69;42.22
23619;BME280;18207;32.078;34.818;2023-08-08T07:58:55;100166.59;;;35.74;42.17
23619;BME280;18207;32.078;34.818;2023-08-08T08:01:25;100163.16;;;35.79;42.33
23619;BME280;18207;32.078;34.818;2023-08-08T08:03:56;100163.06;;;35.83;42.37
23619;BME280;18207;32.078;34.818;2023-08-08T08:06:26;100162.13;;;35.85;42.51
23619;BME280;18207;32.078;34.818;2023-08-08T08:08:57;100162.97;;;35.86;42.13
23619;BME280;18207;32.078;34.818;2023-08-08T08:11:27;100153.91;;;35.87;41.95
23619;BME280;18207;32.078;34.818;2023-08-08T08:14:00;100153.44;;;35.89;42.27
23619;BME280;18207;32.078;34.818;2023-08-08T08:16:30;100157.91;;;35.90;42.28
23619;BME280;18207;32.078;34.818;2023-08-08T08:19:00;100151.75;;;35.91;42.43
23619;BME280;18207;32.078;34.818;2023-08-08T08:21:31;100153.38;;;35.92;41.98
23619;BME280;18207;32.078;34.818;2023-08-08T08:24:04;100155.69;;;35.97;42.16
23619;BME280;18207;32.078;34.818;2023-08-08T08:26:34;100158.44;;;36.01;42.22
23619;BME280;18207;32.078;34.818;2023-08-08T08:29:05;100143.22;;;36.04;41.91
23619;BME280;18207;32.078;34.818;2023-08-08T08:31:36;100152.16;;;36.06;42.49
23619;BME280;18207;32.078;34.818;2023-08-08T08:34:06;100158.56;;;36.10;42.48
23619;BME280;18207;32.078;34.818;2023-08-08T08:36:36;100162.91;;;36.14;41.85
23619;BME280;18207;32.078;34.818;2023-08-08T08:39:07;100155.03;;;36.18;42.31
23619;BME280;18207;32.078;34.818;2023-08-08T08:41:37;100151.56;;;36.23;42.26
23619;BME280;18207;32.078;34.818;2023-08-08T08:44:10;100151.94;;;36.25;41.63
23619;BME280;18207;32.078;34.818;2023-08-08T08:46:40;100143.69;;;36.27;42.06
23619;BME280;18207;32.078;34.818;2023-08-08T08:49:10;100152.16;;;36.31;41.46
23619;BME280;18207;32.078;34.818;2023-08-08T08:51:41;100147.56;;;36.33;41.63
23619;BME280;18207;32.078;34.818;2023-08-08T08:54:13;100144.63;;;36.37;41.56
23619;BME280;18207;32.078;34.818;2023-08-08T08:56:46;100138.78;;;36.40;42.08
23619;BME280;18207;32.078;34.818;2023-08-08T08:59:18;100152.53;;;36.45;41.44
23619;BME280;18207;32.078;34.818;2023-08-08T09:01:49;100138.91;;;36.49;41.74
23619;BME280;18207;32.078;34.818;2023-08-08T09:04:21;100142.13;;;36.51;41.96
23619;BME280;18207;32.078;34.818;2023-08-08T09:06:51;100144.16;;;36.51;41.97
23619;BME280;18207;32.078;34.818;2023-08-08T09:09:23;100137.97;;;36.52;41.91
23619;BME280;18207;32.078;34.818;2023-08-08T09:11:54;100139.13;;;36.55;41.42
23619;BME280;18207;32.078;34.818;2023-08-08T09:14:27;100139.94;;;36.55;41.64
23619;BME280;18207;32.078;34.818;2023-08-08T09:16:57;100132.94;;;36.56;41.44
23619;BME280;18207;32.078;34.818;2023-08-08T09:19:28;100130.91;;;36.57;41.20
23619;BME280;18207;32.078;34.818;2023-08-08T09:21:58;100132.94;;;36.56;40.99
23619;BME280;18207;32.078;34.818;2023-08-08T09:24:29;100129.28;;;36.56;41.51
23619;BME280;18207;32.078;34.818;2023-08-08T09:27:00;100132.94;;;36.56;41.00
23619;BME280;18207;32.078;34.818;2023-08-08T09:29:34;100134.53;;;36.57;41.54
23619;BME280;18207;32.078;34.818;2023-08-08T09:32:06;100136.94;;;36.59;40.85
23619;BME280;18207;32.078;34.818;2023-08-08T09:34:36;100139.03;;;36.58;41.58
23619;BME280;18207;32.078;34.818;2023-08-08T09:37:06;100130.44;;;36.58;41.21
23619;BME280;18207;32.078;34.818;2023-08-08T09:39:38;100135.34;;;36.58;40.85
23619;BME280;18207;32.078;34.818;2023-08-08T09:42:09;100135.69;;;36.60;41.10
23619;BME280;18207;32.078;34.818;2023-08-08T09:44:43;100138.53;;;36.60;40.71
23619;BME280;18207;32.078;34.818;2023-08-08T09:47:13;100136.16;;;36.58;40.72
23619;BME280;18207;32.078;34.818;2023-08-08T09:49:45;100130.44;;;36.58;41.03
23619;BME280;18207;32.078;34.818;2023-08-08T09:52:16;100127.56;;;36.58;41.20
23619;BME280;18207;32.078;34.818;2023-08-08T09:54:48;100119.75;;;36.59;40.68
23619;BME280;18207;32.078;34.818;2023-08-08T09:57:28;100124.22;;;36.60;41.11
23619;BME280;18207;32.078;34.818;2023-08-08T10:00:02;100122.63;;;36.59;40.55
23619;BME280;18207;32.078;34.818;2023-08-08T10:02:34;100129.94;;;36.60;40.84
23619;BME280;18207;32.078;34.818;2023-08-08T10:05:05;100132.81;;;36.60;40.69
23619;BME280;18207;32.078;34.818;2023-08-08T10:07:39;100125.84;;;36.61;41.25
23619;BME280;18207;32.078;34.818;2023-08-08T10:10:10;100124.56;;;36.62;40.81
23619;BME280;18207;32.078;34.818;2023-08-08T10:12:41;100112.31;;;36.61;40.74
23619;BME280;18207;32.078;34.818;2023-08-08T10:15:41;100114.38;;;36.61;41.31
23619;BME280;18207;32.078;34.818;2023-08-08T10:18:14;100115.97;;;36.62;40.89
23619;BME280;18207;32.078;34.818;2023-08-08T10:20:46;100108.66;;;36.61;41.03
23619;BME280;18207;32.078;34.818;2023-08-08T10:23:18;100112.75;;;36.60;41.25
23619;BME280;18207;32.078;34.818;2023-08-08T10:25:52;100116.09;;;36.58;41.41
23619;BME280;18207;32.078;34.818;2023-08-08T10:28:22;100113.38;;;36.55;41.32
23619;BME280;18207;32.078;34.818;2023-08-08T10:30:59;100108.88;;;36.54;41.21
23619;BME280;18207;32.078;34.818;2023-08-08T10:33:42;100106.47;;;36.52;40.84
23619;BME280;18207;32.078;34.818;2023-08-08T10:36:13;100110.16;;;36.53;41.10
23619;BME280;18207;32.078;34.818;2023-08-08T10:38:46;100104.41;;;36.53;41.33
23619;BME280;18207;32.078;34.818;2023-08-08T10:41:20;100105.22;;;36.53;41.29
23619;BME280;18207;32.078;34.818;2023-08-08T10:43:53;100097.09;;;36.52;41.02
23619;BME280;18207;32.078;34.818;2023-08-08T10:46:28;100112.19;;;36.52;41.50
23619;BME280;18207;32.078;34.818;2023-08-08T10:49:00;100103.59;;;36.52;41.18
23619;BME280;18207;32.078;34.818;2023-08-08T10:51:40;100099.16;;;36.51;41.33
23619;BME280;18207;32.078;34.818;2023-08-08T10:54:15;100107.75;;;36.51;41.23
23619;BME280;18207;32.078;34.818;2023-08-08T10:56:58;100103.94;;;36.54;41.28
23619;BME280;18207;32.078;34.818;2023-08-08T10:59:42;100097.78;;;36.56;41.22
23619;BME280;18207;32.078;34.818;2023-08-08T11:02:15;100086.31;;;36.56;41.17
23619;BME280;18207;32.078;34.818;2023-08-08T11:04:46;100100.66;;;36.56;41.64
23619;BME280;18207;32.078;34.818;2023-08-08T11:07:16;100094.91;;;36.56;41.05
23619;BME280;18207;32.078;34.818;2023-08-08T11:09:46;100081.38;;;36.56;41.01
23619;BME280;18207;32.078;34.818;2023-08-08T11:12:23;100096.53;;;36.57;41.34
23619;BME280;18207;32.078;34.818;2023-08-08T11:14:55;100089.97;;;36.56;41.02
23619;BME280;18207;32.078;34.818;2023-08-08T11:17:27;100089.97;;;36.56;41.33
23619;BME280;18207;32.078;34.818;2023-08-08T11:19:58;100086.31;;;36.56;41.44
23619;BME280;18207;32.078;34.818;2023-08-08T11:22:30;100083.13;;;36.54;41.23
23619;BME280;18207;32.078;34.818;2023-08-08T11:25:00;100088.03;;;36.53;41.15
23619;BME280;18207;32.078;34.818;2023-08-08T11:27:31;100095.00;;;36.52;41.45
23619;BME280;18207;32.078;34.818;2023-08-08T11:30:06;100086.88;;;36.51;40.88
23619;BME280;18207;32.078;34.818;2023-08-08T11:32:53;100091.00;;;36.50;41.24
23619;BME280;18207;32.078;34.818;2023-08-08T11:35:27;100086.53;;;36.49;41.47
23619;BME280;18207;32.078;34.818;2023-08-08T11:38:00;100086.88;;;36.51;41.37
23619;BME280;18207;32.078;34.818;2023-08-08T11:40:31;100079.56;;;36.50;41.41
23619;BME280;18207;32.078;34.818;2023-08-08T11:43:02;100093.88;;;36.50;41.32
23619;BME280;18207;32.078;34.818;2023-08-08T11:45:34;100084.50;;;36.49;41.26
23619;BME280;18207;32.078;34.818;2023-08-08T11:48:09;100093.44;;;36.51;41.24
23619;BME280;18207;32.078;34.818;2023-08-08T11:50:41;100083.56;;;36.52;40.80
23619;BME280;18207;32.078;34.818;2023-08-08T11:53:12;100097.09;;;36.52;41.46
23619;BME280;18207;32.078;34.818;2023-08-08T11:55:51;100093.44;;;36.51;41.21
23619;BME280;18207;32.078;34.818;2023-08-08T11:58:24;100083.69;;;36.49;41.06
23619;BME280;18207;32.078;34.818;2023-08-08T12:00:56;100088.63;;;36.48;41.38
23619;BME280;18207;32.078;34.818;2023-08-08T12:03:28;100082.53;;;36.46;41.25
23619;BME280;18207;32.078;34.818;2023-08-08T12:05:59;100090.78;;;36.44;40.99
23619;BME280;18207;32.078;34.818;2023-08-08T12:08:31;100076.09;;;36.42;41.23
23619;BME280;18207;32.078;34.818;2023-08-08T12:11:01;100080.25;;;36.41;41.04
23619;BME280;18207;32.078;34.818;2023-08-08T12:13:32;100079.91;;;36.39;41.14
23619;BME280;18207;32.078;34.818;2023-08-08T12:16:04;100075.78;;;36.40;41.42
23619;BME280;18207;32.078;34.818;2023-08-08T12:18:48;100070.50;;;36.39;41.14
23619;BME280;18207;32.078;34.818;2023-08-08T12:21:18;100077.81;;;36.40;41.02
23619;BME280;18207;32.078;34.818;2023-08-08T12:23:48;100067.63;;;36.39;41.36
23619;BME280;18207;32.078;34.818;2023-08-08T12:26:19;100066.84;;;36.38;40.96
23619;BME280;18207;32.078;34.818;2023-08-08T12:28:49;100075.91;;;36.37;40.93
23619;BME280;18207;32.078;34.818;2023-08-08T12:31:22;100070.63;;;36.35;41.27
23619;BME280;18207;32.078;34.818;2023-08-08T12:33:59;100071.88;;;36.34;40.77
23619;BME280;18207;32.078;34.818;2023-08-08T12:36:29;100060.53;;;36.31;40.84
23619;BME280;18207;32.078;34.818;2023-08-08T12:38:59;100067.53;;;36.30;40.53
23619;BME280;18207;32.078;34.818;2023-08-08T12:41:29;100071.66;;;36.29;40.84
23619;BME280;18207;32.078;34.818;2023-08-08T12:44:00;100077.06;;;36.27;40.77
23619;BME280;18207;32.078;34.818;2023-08-08T12:46:31;100066.84;;;36.26;40.40
23619;BME280;18207;32.078;34.818;2023-08-08T12:49:03;100061.56;;;36.24;41.24
23619;BME280;18207;32.078;34.818;2023-08-08T12:51:34;100073.84;;;36.25;41.05
23619;BME280;18207;32.078;34.818;2023-08-08T12:54:05;100064.91;;;36.23;40.49
23619;BME280;18207;32.078;34.818;2023-08-08T12:56:35;100062.84;;;36.23;41.08
23619;BME280;18207;32.078;34.818;2023-08-08T12:59:06;100071.09;;;36.21;40.75
23619;BME280;18207;32.078;34.818;2023-08-08T13:01:36;100060.09;;;36.20;40.54
23619;BME280;18207;32.078;34.818;2023-08-08T13:04:09;100061.81;;;36.17;40.77